Time;durP1;ratioP1;P1;durP2;ratioP2;P2;SDS_P1;SDS_P2;PMS_P1;PMS_P2;Temp;Humidity;BMP_temperature;BMP_pressure;BME280_temperature;BME280_humidity;BME280_pressure;Samples;Min_cycle;Max_cycle;Signal;HPM_P1;HPM_P2
2022/06/26 00:00:08;;;;;;;9.63;4.28;;;;;;;21.46;nan;-24413.44;5051833;28;20634;-63
2022/06/26 00:02:34;;;;;;;5.35;3.42;;;;;;;21.20;nan;-24406.34;5053903;28;20623;-62
2022/06/26 00:04:59;;;;;;;9.25;3.72;;;;;;;21.18;nan;-24405.81;5053328;28;20207;-62
2022/06/26 00:07:25;;;;;;;5.57;3.70;;;;;;;21.16;nan;-24405.25;5053634;28;20712;-61
2022/06/26 00:09:50;;;;;;;8.88;3.88;;;;;;;21.06;nan;-24402.59;5053366;28;20619;-62
2022/06/26 00:12:16;;;;;;;5.55;3.53;;;;;;;21.17;nan;-24405.53;5053467;28;20253;-60
2022/06/26 00:14:42;;;;;;;5.22;3.50;;;;;;;21.12;nan;-24404.13;5052455;28;20249;-60
2022/06/26 00:17:08;;;;;;;5.68;3.72;;;;;;;21.28;nan;-24408.56;5052734;28;20186;-59
2022/06/26 00:19:34;;;;;;;5.63;3.40;;;;;;;21.30;nan;-24409.00;5053079;28;20170;-60
2022/06/26 00:21:59;;;;;;;6.95;3.38;;;;;;;21.05;nan;-24402.34;5052539;28;20738;-60
2022/06/26 00:24:25;;;;;;;4.78;2.92;;;;;;;21.17;nan;-24405.53;5053388;28;20213;-59
2022/06/26 00:26:50;;;;;;;5.07;3.40;;;;;;;20.89;nan;-24397.91;5052960;28;20179;-60
2022/06/26 00:29:16;;;;;;;4.97;2.45;;;;;;;21.19;nan;-24406.06;5051745;28;20261;-59
2022/06/26 00:31:41;;;;;;;5.10;3.00;;;;;;;21.12;nan;-24404.13;5051958;28;20236;-62
2022/06/26 00:34:07;;;;;;;5.78;3.15;;;;;;;21.12;nan;-24404.13;5052318;28;20214;-61
2022/06/26 00:36:32;;;;;;;5.18;2.83;;;;;;;20.86;nan;-24397.06;5052959;28;20178;-58
2022/06/26 00:38:58;;;;;;;5.47;2.90;;;;;;;20.92;nan;-24398.72;5052941;28;20179;-60
2022/06/26 00:41:23;;;;;;;5.53;3.25;;;;;;;21.17;nan;-24405.53;5052369;28;20182;-59
2022/06/26 00:43:49;;;;;;;8.05;3.35;;;;;;;21.03;nan;-24401.78;5053026;28;20206;-59
2022/06/26 00:46:14;;;;;;;5.47;3.25;;;;;;;21.01;nan;-24401.09;5052618;28;20611;-61
2022/06/26 00:48:40;;;;;;;9.32;3.03;;;;;;;20.98;nan;-24400.38;5052336;28;20225;-60
2022/06/26 00:51:06;;;;;;;6.38;2.90;;;;;;;21.11;nan;-24403.84;5052845;28;20178;-61
2022/06/26 00:53:32;;;;;;;5.07;2.88;;;;;;;21.07;nan;-24402.75;5050253;28;20654;-62
2022/06/26 00:56:18;;;;;;;5.60;3.28;;;;;;;21.06;nan;-24402.59;5053054;28;20174;-62
2022/06/26 00:58:44;;;;;;;5.38;3.22;;;;;;;20.88;nan;-24397.63;5052311;28;20225;-59
2022/06/26 01:01:10;;;;;;;3.75;2.75;;;;;;;20.88;nan;-24397.47;5051880;28;20226;-62
2022/06/26 01:03:35;;;;;;;3.58;2.53;;;;;;;20.86;nan;-24397.06;5053884;28;20660;-62
2022/06/26 01:06:01;;;;;;;5.15;2.75;;;;;;;20.93;nan;-24399.00;5052767;28;20277;-62
2022/06/26 01:08:26;;;;;;;8.18;2.75;;;;;;;20.76;nan;-24394.28;5052207;28;20646;-59
2022/06/26 01:10:51;;;;;;;4.60;2.75;;;;;;;21.14;nan;-24404.84;5052452;28;20550;-60
2022/06/26 01:13:17;;;;;;;6.90;3.25;;;;;;;21.04;nan;-24402.06;5052778;28;20174;-63
2022/06/26 01:15:43;;;;;;;6.35;2.90;;;;;;;20.91;nan;-24398.44;5052308;28;20601;-60
2022/06/26 01:18:10;;;;;;;7.70;2.90;;;;;;;20.84;nan;-24396.50;5051809;28;20187;-60
2022/06/26 01:20:35;;;;;;;5.97;3.10;;;;;;;21.07;nan;-24402.75;5053133;28;20547;-62
2022/06/26 01:23:03;;;;;;;7.18;2.75;;;;;;;20.96;nan;-24399.69;5051897;28;20179;-62
2022/06/26 01:25:45;;;;;;;4.47;2.67;;;;;;;21.13;nan;-24404.41;5052437;28;20190;-60
2022/06/26 01:28:11;;;;;;;3.45;2.63;;;;;;;20.96;nan;-24399.84;5051654;28;20185;-62
2022/06/26 01:30:37;;;;;;;4.80;3.33;;;;;;;21.01;nan;-24401.22;5052939;28;20179;-61
2022/06/26 01:33:03;;;;;;;5.85;3.05;;;;;;;21.15;nan;-24405.09;5051554;28;20182;-63
2022/06/26 01:35:28;;;;;;;3.92;2.58;;;;;;;21.23;nan;-24407.19;5051778;28;20198;-60
2022/06/26 01:37:54;;;;;;;4.97;3.15;;;;;;;20.87;nan;-24397.34;5051706;28;20183;-60
2022/06/26 01:40:19;;;;;;;3.67;2.83;;;;;;;20.93;nan;-24398.88;5052309;28;20178;-59
2022/06/26 01:42:45;;;;;;;4.60;2.88;;;;;;;20.94;nan;-24399.16;5050720;28;20201;-61
2022/06/26 01:45:10;;;;;;;7.13;3.15;;;;;;;21.01;nan;-24401.09;5051850;28;20182;-60
2022/06/26 01:47:36;;;;;;;4.93;3.00;;;;;;;21.12;nan;-24404.28;5051858;28;20530;-63
2022/06/26 01:50:01;;;;;;;8.48;3.00;;;;;;;20.73;nan;-24393.44;5051766;28;20191;-59
2022/06/26 01:52:27;;;;;;;7.57;2.90;;;;;;;20.86;nan;-24397.06;5051822;28;20181;-63
2022/06/26 01:54:52;;;;;;;7.70;3.10;;;;;;;20.80;nan;-24395.41;5051849;28;20218;-62
2022/06/26 01:57:17;;;;;;;4.57;2.83;;;;;;;20.76;nan;-24394.28;5052005;28;20669;-62
2022/06/26 01:59:44;;;;;;;4.43;2.88;;;;;;;20.81;nan;-24395.53;5051618;28;20186;-59
2022/06/26 02:02:09;;;;;;;6.07;3.10;;;;;;;21.15;nan;-24405.09;5051741;28;20716;-60
2022/06/26 02:04:35;;;;;;;8.57;2.70;;;;;;;20.75;nan;-24393.88;5049968;28;20265;-60
2022/06/26 02:07:00;;;;;;;4.03;2.75;;;;;;;21.02;nan;-24401.34;5052340;28;20190;-62
2022/06/26 02:15:04;;;;;;;4.28;2.60;;;;;;;20.83;nan;-24396.22;5049178;28;20260;-62
2022/06/26 02:17:29;;;;;;;5.90;3.40;;;;;;;20.56;nan;-24388.75;5052303;28;20186;-62
2022/06/26 02:19:55;;;;;;;4.43;3.17;;;;;;;20.47;nan;-24386.38;5050810;28;20205;-61
2022/06/26 02:22:20;;;;;;;6.40;3.13;;;;;;;20.38;nan;-24383.75;5051042;28;20209;-62
2022/06/26 02:24:46;;;;;;;7.32;3.20;;;;;;;20.37;nan;-24383.47;5051555;28;20178;-63
2022/06/26 02:27:11;;;;;;;8.07;3.10;;;;;;;20.31;nan;-24381.94;5051215;28;20182;-60
2022/06/26 02:29:36;;;;;;;7.22;3.50;;;;;;;20.61;nan;-24390.25;5051494;28;20187;-59
2022/06/26 02:32:02;;;;;;;7.10;3.75;;;;;;;20.59;nan;-24389.56;5050425;28;20189;-61
2022/06/26 02:34:28;;;;;;;6.30;3.58;;;;;;;20.53;nan;-24388.03;5050901;28;20599;-60
2022/06/26 02:36:53;;;;;;;4.75;3.47;;;;;;;20.80;nan;-24395.41;5049346;28;20190;-59
2022/06/26 02:39:19;;;;;;;8.25;3.80;;;;;;;20.60;nan;-24389.84;5050413;28;20181;-63
2022/06/26 02:41:44;;;;;;;4.90;3.40;;;;;;;20.57;nan;-24389.16;5050981;28;20217;-61
2022/06/26 02:44:09;;;;;;;7.13;4.10;;;;;;;20.56;nan;-24388.75;5050169;28;20986;-59
2022/06/26 02:46:35;;;;;;;6.93;4.13;;;;;;;20.44;nan;-24385.41;5050679;28;20181;-62
2022/06/26 02:49:00;;;;;;;6.95;3.50;;;;;;;20.78;nan;-24394.69;5050034;28;20214;-61
2022/06/26 02:51:26;;;;;;;6.57;4.00;;;;;;;20.62;nan;-24390.53;5050749;28;20281;-62
2022/06/26 02:53:52;;;;;;;6.80;4.05;;;;;;;20.21;nan;-24379.28;5050917;28;20641;-62
2022/06/26 02:56:17;;;;;;;4.95;3.15;;;;;;;20.15;nan;-24377.47;5050843;28;20658;-63
2022/06/26 02:58:43;;;;;;;9.48;4.05;;;;;;;20.40;nan;-24384.28;5050997;28;20194;-60
2022/06/26 03:01:08;;;;;;;5.25;3.30;;;;;;;20.22;nan;-24379.44;5048461;28;20305;-60
2022/06/26 03:03:33;;;;;;;5.50;3.15;;;;;;;20.00;nan;-24373.47;5050337;28;20174;-63
2022/06/26 03:05:59;;;;;;;6.55;4.03;;;;;;;20.28;nan;-24381.09;5050617;28;20183;-62
2022/06/26 03:08:24;;;;;;;8.25;3.55;;;;;;;20.38;nan;-24383.75;5050421;28;20637;-62
2022/06/26 03:10:50;;;;;;;7.50;4.00;;;;;;;20.22;nan;-24379.44;5050614;28;20182;-61
2022/06/26 03:13:16;;;;;;;7.13;3.50;;;;;;;20.46;nan;-24385.97;5065451;28;20693;-60
2022/06/26 03:15:41;;;;;;;7.50;3.88;;;;;;;20.43;nan;-24385.28;5050247;28;20293;-61
2022/06/26 03:18:07;;;;;;;6.35;3.15;;;;;;;20.17;nan;-24378.19;5050217;28;20210;-61
2022/06/26 03:20:32;;;;;;;5.80;3.42;;;;;;;20.45;nan;-24385.81;5049567;28;20206;-59
2022/06/26 03:22:58;;;;;;;5.30;3.47;;;;;;;20.14;nan;-24377.34;5050270;28;20175;-61
2022/06/26 03:25:23;;;;;;;5.43;3.65;;;;;;;20.14;nan;-24377.34;5050421;28;20270;-60
2022/06/26 03:27:50;;;;;;;6.82;3.63;;;;;;;20.16;nan;-24377.75;5051285;28;20175;-61
2022/06/26 03:30:16;;;;;;;5.30;3.42;;;;;;;20.02;nan;-24374.00;5048274;28;20611;-61
2022/06/26 03:32:41;;;;;;;8.18;3.75;;;;;;;20.62;nan;-24390.53;5051303;28;20213;-62
2022/06/26 03:35:08;;;;;;;4.82;3.08;;;;;;;20.71;nan;-24393.03;5053574;28;20228;-60
2022/06/26 03:37:34;;;;;;;6.13;3.70;;;;;;;20.81;nan;-24395.66;5053375;28;20210;-59
2022/06/26 03:39:59;;;;;;;7.03;4.00;;;;;;;20.69;nan;-24392.34;5053239;28;20217;-60
2022/06/26 03:42:25;;;;;;;5.88;3.67;;;;;;;20.69;nan;-24392.34;5054264;28;20186;-62
2022/06/26 03:44:51;;;;;;;5.90;3.60;;;;;;;20.41;nan;-24384.56;5053622;28;20660;-60
2022/06/26 03:47:17;;;;;;;7.55;4.05;;;;;;;20.67;nan;-24391.78;5053799;28;20701;-59
2022/06/26 03:49:43;;;;;;;8.52;3.90;;;;;;;20.67;nan;-24391.78;5053228;28;20265;-61
2022/06/26 03:52:08;;;;;;;10.20;3.90;;;;;;;20.37;nan;-24383.47;5052875;28;20261;-63
2022/06/26 03:54:34;;;;;;;8.18;3.65;;;;;;;20.66;nan;-24391.66;5053470;28;20194;-61
2022/06/26 03:57:00;;;;;;;6.05;4.20;;;;;;;20.52;nan;-24387.63;5052936;28;20693;-59
2022/06/26 03:59:25;;;;;;;9.02;3.67;;;;;;;19.93;nan;-24371.50;5053438;28;20228;-59
2022/06/26 04:01:51;;;;;;;7.25;3.92;;;;;;;20.54;nan;-24388.31;5052550;28;20272;-61
2022/06/26 04:04:16;;;;;;;7.75;4.18;;;;;;;20.81;nan;-24395.66;5052753;28;20577;-59
2022/06/26 04:06:42;;;;;;;6.18;3.83;;;;;;;20.98;nan;-24400.25;5053525;28;20240;-60
2022/06/26 04:09:07;;;;;;;5.82;3.88;;;;;;;20.66;nan;-24391.50;5052994;28;20175;-63
2022/06/26 04:11:32;;;;;;;7.00;3.90;;;;;;;20.99;nan;-24400.66;5053857;28;20685;-61
2022/06/26 04:13:58;;;;;;;7.72;3.60;;;;;;;20.61;nan;-24390.13;5052762;28;20665;-62
2022/06/26 04:16:24;;;;;;;8.77;4.22;;;;;;;21.02;nan;-24401.34;5042056;28;20575;-62
2022/06/26 04:18:50;;;;;;;8.45;4.47;;;;;;;20.73;nan;-24393.44;5053659;28;20190;-61
2022/06/26 04:21:16;;;;;;;7.90;4.18;;;;;;;20.65;nan;-24391.22;5053707;28;20213;-61
2022/06/26 04:23:41;;;;;;;7.45;4.93;;;;;;;20.79;nan;-24395.13;5054638;28;20618;-62
2022/06/26 04:26:07;;;;;;;9.27;4.82;;;;;;;20.84;nan;-24396.50;5053124;28;20186;-62
2022/06/26 04:28:33;;;;;;;7.18;4.47;;;;;;;21.17;nan;-24405.38;5054024;28;20331;-61
2022/06/26 04:30:59;;;;;;;7.80;4.43;;;;;;;21.23;nan;-24407.19;5051720;28;20174;-63
2022/06/26 04:33:24;;;;;;;8.55;4.53;;;;;;;21.02;nan;-24401.50;5052926;28;20654;-62
2022/06/26 04:35:50;;;;;;;7.70;4.80;;;;;;;20.91;nan;-24398.31;5053455;28;20194;-62
2022/06/26 04:38:15;;;;;;;7.55;4.32;;;;;;;20.90;nan;-24398.16;5052856;28;20708;-60
2022/06/26 04:40:41;;;;;;;7.43;4.35;;;;;;;21.22;nan;-24406.91;5052825;28;20184;-62
2022/06/26 04:43:07;;;;;;;8.65;4.80;;;;;;;20.94;nan;-24399.28;5052110;28;20223;-59
2022/06/26 04:45:33;;;;;;;7.95;4.65;;;;;;;21.35;nan;-24410.50;5050488;28;20273;-59
2022/06/26 04:47:58;;;;;;;9.05;5.28;;;;;;;21.40;nan;-24411.75;5052186;28;20321;-59
2022/06/26 04:50:24;;;;;;;7.88;4.90;;;;;;;21.42;nan;-24412.31;5052831;28;20202;-60
2022/06/26 04:52:49;;;;;;;10.77;4.70;;;;;;;21.29;nan;-24408.72;5052428;28;20185;-61
2022/06/26 04:55:15;;;;;;;11.88;5.40;;;;;;;21.30;nan;-24409.00;5049279;28;20209;-60
2022/06/26 04:57:40;;;;;;;10.20;6.07;;;;;;;21.49;nan;-24414.25;5052773;28;20274;-61
2022/06/26 05:00:09;;;;;;;9.18;5.55;;;;;;;21.57;nan;-24416.63;5051166;28;20186;-60
2022/06/26 05:02:38;;;;;;;9.30;5.65;;;;;;;21.39;nan;-24411.50;5050455;28;20230;-64
2022/06/26 05:05:04;;;;;;;10.60;6.05;;;;;;;21.50;nan;-24414.53;5050737;28;20175;-63
2022/06/26 05:07:30;;;;;;;10.48;6.13;;;;;;;21.33;nan;-24409.97;5051479;28;20654;-60
2022/06/26 05:09:56;;;;;;;10.25;5.30;;;;;;;21.44;nan;-24413.00;5050950;28;20198;-62
2022/06/26 05:12:21;;;;;;;11.70;6.60;;;;;;;21.25;nan;-24407.59;5050969;28;20276;-60
2022/06/26 05:14:47;;;;;;;9.55;6.25;;;;;;;21.30;nan;-24409.00;5050827;28;20205;-61
2022/06/26 05:17:13;;;;;;;12.07;6.00;;;;;;;21.60;nan;-24417.44;5050734;28;20282;-61
2022/06/26 05:19:38;;;;;;;11.73;6.40;;;;;;;21.61;nan;-24417.59;5052324;28;20186;-62
2022/06/26 05:22:04;;;;;;;16.70;6.13;;;;;;;21.92;nan;-24426.03;5050930;28;20182;-62
2022/06/26 05:24:30;;;;;;;9.05;5.88;;;;;;;22.06;nan;-24429.78;5050508;28;20179;-62
2022/06/26 05:26:57;;;;;;;12.43;6.15;;;;;;;22.12;nan;-24431.44;5051332;28;20191;-60
2022/06/26 05:29:23;;;;;;;11.77;6.18;;;;;;;22.25;nan;-24435.03;5051107;28;20171;-62
2022/06/26 05:31:49;;;;;;;9.88;5.63;;;;;;;22.32;nan;-24436.97;5052404;28;20257;-61
2022/06/26 05:34:15;;;;;;;13.63;5.90;;;;;;;22.30;nan;-24436.41;5049225;28;20583;-61
2022/06/26 05:36:40;;;;;;;11.27;5.78;;;;;;;22.15;nan;-24432.41;5050502;28;20642;-63
2022/06/26 05:39:06;;;;;;;9.70;5.53;;;;;;;22.43;nan;-24440.16;5050013;28;20179;-61
2022/06/26 05:41:31;;;;;;;9.88;5.63;;;;;;;22.59;nan;-24444.31;5047703;28;20174;-61
2022/06/26 05:43:57;;;;;;;10.98;5.40;;;;;;;22.72;nan;-24447.91;5050905;28;20653;-60
2022/06/26 05:46:23;;;;;;;9.90;5.53;;;;;;;22.88;nan;-24452.31;5049574;28;20182;-59
2022/06/26 05:48:48;;;;;;;8.45;5.30;;;;;;;22.98;nan;-24454.94;5050250;28;20183;-60
2022/06/26 05:51:14;;;;;;;7.50;4.90;;;;;;;23.06;nan;-24457.31;5048464;28;20689;-59
2022/06/26 05:53:39;;;;;;;9.25;5.03;;;;;;;22.93;nan;-24453.72;5041897;28;20662;-60
2022/06/26 05:56:05;;;;;;;7.57;5.40;;;;;;;23.44;nan;-24467.53;5045068;28;20584;-63
2022/06/26 05:58:31;;;;;;;7.70;5.15;;;;;;;23.69;nan;-24474.56;5044201;28;20196;-61
2022/06/26 06:00:57;;;;;;;10.25;5.15;;;;;;;23.80;nan;-24477.31;5043850;28;20231;-61
2022/06/26 06:03:22;;;;;;;6.68;4.68;;;;;;;24.01;nan;-24483.25;5045520;28;20193;-64
2022/06/26 06:05:48;;;;;;;10.05;5.28;;;;;;;24.55;nan;-24498.00;5045290;28;20182;-61
2022/06/26 06:08:13;;;;;;;8.80;5.25;;;;;;;24.83;nan;-24505.44;5044424;28;20612;-61
2022/06/26 06:10:39;;;;;;;11.45;5.10;;;;;;;25.03;nan;-24510.97;5046274;28;20170;-63
2022/06/26 06:13:04;;;;;;;10.00;4.95;;;;;;;25.38;nan;-24520.59;5044527;28;20175;-61
2022/06/26 06:15:30;;;;;;;7.80;5.15;;;;;;;25.31;nan;-24518.53;5042644;28;20213;-64
2022/06/26 06:17:55;;;;;;;6.85;4.28;;;;;;;25.39;nan;-24520.72;5044303;28;20244;-63
2022/06/26 06:20:24;;;;;;;7.03;4.28;;;;;;;25.39;nan;-24520.88;5044637;28;20181;-60
2022/06/26 06:22:54;;;;;;;6.10;4.20;;;;;;;25.86;nan;-24533.53;5043881;28;20699;-62
2022/06/26 06:25:21;;;;;;;6.97;4.47;;;;;;;26.01;nan;-24537.66;5044342;28;20179;-65
2022/06/26 06:27:47;;;;;;;6.32;4.03;;;;;;;26.08;nan;-24539.56;5043431;28;20550;-59
2022/06/26 06:30:15;;;;;;;8.85;4.32;;;;;;;26.45;nan;-24549.47;5043514;28;20189;-61
2022/06/26 06:32:41;;;;;;;5.47;3.72;;;;;;;26.92;nan;-24562.38;5044442;28;20193;-61
2022/06/26 06:35:13;;;;;;;6.97;4.20;;;;;;;26.80;nan;-24559.06;5044104;28;20589;-63
2022/06/26 06:37:38;;;;;;;5.03;3.45;;;;;;;27.09;nan;-24567.03;5044196;28;20170;-63
2022/06/26 06:40:04;;;;;;;5.85;3.35;;;;;;;27.17;nan;-24569.22;5044479;28;20186;-62
2022/06/26 06:42:30;;;;;;;5.45;3.70;;;;;;;27.42;nan;-24575.94;5042803;28;20182;-62
2022/06/26 06:44:55;;;;;;;5.43;3.45;;;;;;;27.42;nan;-24575.94;5043112;28;20244;-61
2022/06/26 06:47:21;;;;;;;5.63;3.42;;;;;;;27.36;nan;-24574.31;5043227;28;20262;-64
2022/06/26 06:49:46;;;;;;;5.75;3.20;;;;;;;27.82;nan;-24586.78;5043425;28;20650;-64
2022/06/26 06:52:11;;;;;;;6.90;3.75;;;;;;;27.89;nan;-24588.69;5043601;28;20732;-65
2022/06/26 06:54:37;;;;;;;5.90;3.40;;;;;;;27.46;nan;-24577.03;5043572;28;20704;-62
2022/06/26 06:57:03;;;;;;;4.57;3.35;;;;;;;27.39;nan;-24575.13;5044719;28;20191;-63
2022/06/26 06:59:28;;;;;;;5.38;3.30;;;;;;;26.98;nan;-24564.00;5043016;28;20201;-63
2022/06/26 07:01:54;;;;;;;4.68;3.20;;;;;;;27.40;nan;-24575.41;5043038;28;20253;-60
2022/06/26 07:04:20;;;;;;;6.32;4.20;;;;;;;27.78;nan;-24585.53;5043163;28;20265;-62
2022/06/26 07:06:45;;;;;;;6.45;4.05;;;;;;;27.45;nan;-24576.78;5045291;28;20672;-60
2022/06/26 07:09:12;;;;;;;6.43;3.75;;;;;;;26.84;nan;-24560.16;5042479;28;20178;-61
2022/06/26 07:11:38;;;;;;;5.47;3.67;;;;;;;26.53;nan;-24551.81;5043906;28;20599;-61
2022/06/26 07:14:04;;;;;;;9.57;4.78;;;;;;;26.10;nan;-24539.97;5044530;28;20190;-60
2022/06/26 07:16:29;;;;;;;6.28;4.03;;;;;;;26.54;nan;-24552.06;5042321;28;20178;-63
2022/06/26 07:18:55;;;;;;;7.68;4.18;;;;;;;26.46;nan;-24549.75;5044023;28;20638;-64
2022/06/26 07:21:21;;;;;;;6.78;4.43;;;;;;;25.11;nan;-24513.16;5044304;28;20186;-60
2022/06/26 07:23:46;;;;;;;6.25;4.30;;;;;;;27.16;nan;-24568.94;5044267;28;20178;-63
2022/06/26 07:26:12;;;;;;;6.63;4.50;;;;;;;27.56;nan;-24579.66;5043566;28;20181;-61
2022/06/26 07:28:38;;;;;;;7.15;4.10;;;;;;;27.01;nan;-24564.84;5042619;28;20650;-62
2022/06/26 07:31:03;;;;;;;5.53;3.75;;;;;;;27.85;nan;-24587.44;5045302;28;20189;-63
2022/06/26 07:36:13;;;;;;;7.10;4.30;;;;;;;28.19;nan;-24596.78;5046442;28;20615;-63
2022/06/26 07:38:39;;;;;;;4.20;3.03;;;;;;;29.06;nan;-24620.28;5047543;28;20191;-65
2022/06/26 07:41:04;;;;;;;5.60;3.03;;;;;;;28.99;nan;-24618.38;5049042;28;20170;-63
2022/06/26 07:43:30;;;;;;;5.72;3.15;;;;;;;29.28;nan;-24626.16;5048769;28;20209;-66
2022/06/26 07:45:56;;;;;;;6.18;3.28;;;;;;;29.76;nan;-24639.28;5048010;28;20182;-62
2022/06/26 07:48:22;;;;;;;5.68;3.08;;;;;;;29.74;nan;-24638.59;5046419;28;20174;-63
2022/06/26 07:50:47;;;;;;;5.57;3.28;;;;;;;29.99;nan;-24645.28;5049183;28;20629;-62
2022/06/26 07:53:13;;;;;;;4.45;3.08;;;;;;;30.02;nan;-24646.09;5048711;28;20178;-65
2022/06/26 07:55:39;;;;;;;5.03;2.95;;;;;;;30.39;nan;-24656.19;5036782;28;20909;-65
2022/06/26 07:58:04;;;;;;;4.20;3.08;;;;;;;30.39;nan;-24656.19;5049204;28;20626;-63
2022/06/26 08:00:30;;;;;;;4.35;2.67;;;;;;;30.41;nan;-24656.72;5015586;28;20197;-64
2022/06/26 08:03:03;;;;;;;4.93;3.15;;;;;;;30.64;nan;-24663.00;5033938;28;20197;-63
2022/06/26 08:05:29;;;;;;;4.60;2.92;;;;;;;30.24;nan;-24652.22;5021271;28;20186;-63
2022/06/26 08:07:54;;;;;;;3.50;2.42;;;;;;;29.91;nan;-24643.09;5022222;28;20335;-65
2022/06/26 08:10:20;;;;;;;6.10;2.22;;;;;;;29.94;nan;-24643.91;5023004;28;20189;-60
2022/06/26 08:12:45;;;;;;;3.95;2.67;;;;;;;30.17;nan;-24650.19;5011742;28;20202;-66
2022/06/26 08:15:11;;;;;;;6.13;2.72;;;;;;;30.28;nan;-24653.19;5011583;28;20256;-62
2022/06/26 08:17:36;;;;;;;4.00;2.65;;;;;;;30.06;nan;-24647.19;5010604;28;20177;-63
2022/06/26 08:20:02;;;;;;;5.20;3.08;;;;;;;29.96;nan;-24644.47;5012008;28;20528;-64
2022/06/26 08:22:27;;;;;;;3.25;2.55;;;;;;;29.28;nan;-24626.16;5015512;28;20612;-64
2022/06/26 08:24:53;;;;;;;3.55;2.25;;;;;;;29.44;nan;-24630.53;5016569;28;20181;-64
2022/06/26 08:27:18;;;;;;;3.40;2.38;;;;;;;29.16;nan;-24622.88;5015499;28;20662;-65
2022/06/26 08:29:44;;;;;;;4.22;2.60;;;;;;;29.34;nan;-24627.81;5015329;28;20170;-64
2022/06/26 08:32:09;;;;;;;3.70;2.20;;;;;;;29.34;nan;-24627.81;5016198;28;20261;-65
2022/06/26 08:34:35;;;;;;;3.22;2.30;;;;;;;29.83;nan;-24641.19;5014566;28;20693;-66
2022/06/26 08:37:00;;;;;;;3.05;2.13;;;;;;;29.96;nan;-24644.47;5017449;28;20197;-64
2022/06/26 08:39:26;;;;;;;3.17;2.10;;;;;;;30.21;nan;-24651.41;5017039;28;20178;-63
2022/06/26 08:41:56;;;;;;;4.43;2.65;;;;;;;29.99;nan;-24645.28;5015507;28;20657;-62
2022/06/26 08:44:24;;;;;;;2.38;2.10;;;;;;;29.85;nan;-24641.72;5014542;28;22532;-62
2022/06/26 08:46:55;;;;;;;3.30;2.70;;;;;;;30.31;nan;-24653.84;5017175;28;20178;-63
2022/06/26 08:49:23;;;;;;;5.07;3.20;;;;;;;30.28;nan;-24653.31;5015676;28;20265;-64
2022/06/26 08:51:51;;;;;;;4.90;2.60;;;;;;;29.76;nan;-24639.13;5014212;28;20256;-65
2022/06/26 08:54:18;;;;;;;9.45;3.72;;;;;;;29.67;nan;-24636.69;5015624;28;20206;-63
2022/06/26 08:56:48;;;;;;;3.90;2.90;;;;;;;29.96;nan;-24644.59;5015519;28;20182;-64
2022/06/26 08:59:16;;;;;;;4.00;2.50;;;;;;;30.05;nan;-24646.91;5016154;28;20283;-63
2022/06/26 09:01:43;;;;;;;3.95;2.65;;;;;;;29.39;nan;-24629.16;5015415;28;20675;-63
2022/06/26 09:04:10;;;;;;;4.55;2.67;;;;;;;29.68;nan;-24636.94;5014643;28;20182;-65
2022/06/26 09:06:37;;;;;;;4.45;2.50;;;;;;;25.65;nan;-24527.75;5013715;28;21778;-65
2022/06/26 09:09:16;;;;;;;3.05;2.35;;;;;;;28.75;nan;-24611.97;5014506;28;20712;-62
2022/06/26 09:11:42;;;;;;;3.45;2.30;;;;;;;29.24;nan;-24625.19;5014846;28;20178;-64
2022/06/26 09:14:08;;;;;;;3.40;2.30;;;;;;;29.36;nan;-24628.34;5014166;28;20698;-62
2022/06/26 09:16:38;;;;;;;3.85;2.33;;;;;;;29.48;nan;-24631.63;5013843;28;20192;-64
2022/06/26 09:19:23;;;;;;;4.80;2.80;;;;;;;29.37;nan;-24628.75;5014265;28;21984;-61
2022/06/26 09:21:48;;;;;;;3.05;2.28;;;;;;;29.56;nan;-24633.81;5012988;28;20182;-63
2022/06/26 09:24:16;;;;;;;3.25;2.10;;;;;;;29.79;nan;-24640.09;5013782;28;20727;-64
2022/06/26 09:26:43;;;;;;;4.00;2.42;;;;;;;29.64;nan;-24636.00;5014480;28;20301;-62
2022/06/26 09:29:18;;;;;;;2.97;2.17;;;;;;;28.60;nan;-24607.84;5014311;28;20174;-64
2022/06/26 09:31:44;;;;;;;4.63;2.33;;;;;;;28.94;nan;-24617.00;5013170;28;20190;-62
2022/06/26 09:34:21;;;;;;;3.15;2.30;;;;;;;27.60;nan;-24580.88;5015939;28;20183;-64
2022/06/26 09:37:05;;;;;;;3.85;2.30;;;;;;;27.89;nan;-24588.56;5014729;28;20186;-67
2022/06/26 09:39:32;;;;;;;3.75;2.35;;;;;;;28.52;nan;-24605.66;5013893;28;20189;-62
2022/06/26 09:42:04;;;;;;;3.65;2.15;;;;;;;28.95;nan;-24617.41;5011893;28;20290;-65
2022/06/26 09:44:29;;;;;;;2.95;2.22;;;;;;;29.25;nan;-24625.34;5015069;28;20178;-61
2022/06/26 09:46:54;;;;;;;3.30;2.22;;;;;;;29.57;nan;-24634.09;5015549;28;20815;-64
2022/06/26 09:49:20;;;;;;;2.28;1.92;;;;;;;;;;5013229;28;20930;-66
2022/06/26 09:51:47;;;;;;;2.60;2.03;;;;;;;30.77;nan;-24666.25;5013403;28;20626;-65
2022/06/26 09:54:14;;;;;;;4.65;2.63;;;;;;;30.01;nan;-24645.81;5013933;28;21850;-66
2022/06/26 09:56:40;;;;;;;2.72;2.10;;;;;;;29.93;nan;-24643.63;5015060;28;20189;-66
2022/06/26 09:59:07;;;;;;;3.20;2.17;;;;;;;30.36;nan;-24655.34;5017403;28;20224;-65
2022/06/26 10:07:16;;;;;;;3.30;2.00;;;;;;;30.42;nan;-24656.84;5013690;28;20184;-62
2022/06/26 10:09:43;;;;;;;5.53;2.90;;;;;;;29.37;nan;-24628.63;4994741;28;20190;-61
2022/06/26 10:12:09;;;;;;;2.95;2.10;;;;;;;29.07;nan;-24620.44;5012518;28;21780;-64
2022/06/26 10:14:38;;;;;;;3.53;2.20;;;;;;;27.89;nan;-24588.69;5011839;28;20309;-62
2022/06/26 10:17:16;;;;;;;3.05;2.33;;;;;;;28.67;nan;-24609.63;5012745;28;20182;-63
2022/06/26 10:20:06;;;;;;;2.80;2.30;;;;;;;29.24;nan;-24625.19;5011000;28;21875;-61
2022/06/26 10:22:43;;;;;;;3.85;2.55;;;;;;;28.90;nan;-24615.91;5044538;28;20605;-63
2022/06/26 10:25:21;;;;;;;4.43;2.90;;;;;;;28.99;nan;-24618.50;5013445;28;20269;-61
2022/06/26 10:27:47;;;;;;;5.22;2.60;;;;;;;29.15;nan;-24622.59;5013356;28;20186;-62
2022/06/26 10:30:17;;;;;;;4.72;2.47;;;;;;;28.74;nan;-24611.69;5015409;28;20189;-62
2022/06/26 10:32:44;;;;;;;3.00;2.30;;;;;;;29.52;nan;-24632.72;5013522;28;20245;-64
2022/06/26 10:35:11;;;;;;;3.70;2.70;;;;;;;30.41;nan;-24656.72;5011457;28;20931;-65
2022/06/26 10:37:45;;;;;;;4.07;2.88;;;;;;;30.24;nan;-24652.22;5017725;28;20271;-62
2022/06/26 10:43:05;;;;;;;3.78;2.28;;;;;;;29.60;nan;-24634.91;5013416;28;20188;-63
2022/06/26 10:45:41;;;;;;;3.58;2.53;;;;;;;29.27;nan;-24625.88;5011514;28;20182;-64
2022/06/26 10:48:19;;;;;;;4.57;2.63;;;;;;;29.50;nan;-24632.19;5015487;28;20201;-61
2022/06/26 10:51:01;;;;;;;3.05;2.60;;;;;;;29.71;nan;-24637.91;5012537;28;20217;-61
2022/06/26 10:53:47;;;;;;;3.78;2.70;;;;;;;29.24;nan;-24625.06;5013642;28;20749;-60
2022/06/26 10:56:12;;;;;;;2.60;2.10;;;;;;;29.67;nan;-24636.81;5012134;28;20350;-64
2022/06/26 10:58:42;;;;;;;3.00;2.25;;;;;;;30.24;nan;-24652.09;5011826;28;20186;-65
2022/06/26 11:01:09;;;;;;;4.53;2.60;;;;;;;30.79;nan;-24666.81;5011558;28;20308;-60
2022/06/26 11:03:37;;;;;;;3.28;2.40;;;;;;;31.23;nan;-24678.78;5011791;28;22293;-64
2022/06/26 11:06:07;;;;;;;3.97;2.60;;;;;;;31.02;nan;-24673.22;5009636;28;20198;-61
2022/06/26 11:08:35;;;;;;;3.50;2.50;;;;;;;31.06;nan;-24674.28;5012243;28;20190;-61
2022/06/26 11:11:06;;;;;;;2.90;2.13;;;;;;;31.18;nan;-24677.28;5012211;28;20178;-62
2022/06/26 11:13:34;;;;;;;6.72;4.00;;;;;;;31.38;nan;-24682.88;5012471;28;20559;-62
2022/06/26 11:16:00;;;;;;;3.78;2.50;;;;;;;31.58;nan;-24688.03;5012034;28;20259;-61
2022/06/26 11:18:32;;;;;;;3.58;2.30;;;;;;;30.86;nan;-24668.72;5013688;28;20818;-64
2022/06/26 11:20:57;;;;;;;5.18;2.55;;;;;;;30.49;nan;-24658.78;5012497;28;20292;-64
2022/06/26 11:23:25;;;;;;;3.38;2.53;;;;;;;30.29;nan;-24653.59;5013257;28;20688;-60
2022/06/26 11:25:59;;;;;;;3.50;2.55;;;;;;;30.99;nan;-24672.38;5046502;28;20178;-62
2022/06/26 11:28:38;;;;;;;4.47;2.60;;;;;;;30.80;nan;-24667.06;5050203;28;20186;-62
2022/06/26 11:31:06;;;;;;;9.10;2.63;;;;;;;30.93;nan;-24670.63;5051296;28;20182;-62
2022/06/26 11:33:35;;;;;;;5.60;2.60;;;;;;;30.67;nan;-24663.81;5049476;28;20194;-62
2022/06/26 11:36:08;;;;;;;3.92;2.78;;;;;;;31.64;nan;-24689.78;5010790;28;20266;-61
2022/06/26 11:38:35;;;;;;;4.28;2.90;;;;;;;32.02;nan;-24699.97;5008427;28;20197;-61
2022/06/26 11:41:08;;;;;;;3.08;2.33;;;;;;;32.23;nan;-24705.56;5013999;28;20297;-64
2022/06/26 11:43:34;;;;;;;4.53;2.60;;;;;;;32.43;nan;-24711.13;5013687;28;20620;-64
2022/06/26 11:46:04;;;;;;;4.75;3.03;;;;;;;31.31;nan;-24680.97;5013229;28;20178;-61
2022/06/26 11:48:30;;;;;;;3.50;2.60;;;;;;;30.13;nan;-24649.09;5013156;28;20186;-65
2022/06/26 11:50:57;;;;;;;3.63;2.40;;;;;;;30.50;nan;-24659.03;5011791;28;21164;-65
2022/06/26 11:53:26;;;;;;;2.92;2.20;;;;;;;30.77;nan;-24666.41;5012530;28;20236;-62
2022/06/26 11:55:54;;;;;;;2.63;2.28;;;;;;;30.94;nan;-24671.03;5015356;28;20723;-62